Terminal Aerodrome Forecast
Issued by NWS

Home | Current Version | Previous Version | Text Only | Print | Product List | Glossary Off
Versions: 1 2 3 4 5 6 7 8 9 10 11 12 13 14 15 16 17 18

000
FTUS43 KBIS 221139
TAFJMS
TAF
KJMS 221139Z 2212/2312 25009KT P6SM SKC
     FM221600 22013KT P6SM FEW250
     FM221900 22019G27KT P6SM SCT110 SCT150
     FM222200 22018G26KT P6SM VCSH BKN080
     FM230200 24016G24KT P6SM SCT070 WS020/26040KT
     FM230700 27015KT P6SM FEW200 WS020/28040KT=

USA.gov is the U.S. government's official web portal to all federal, state and local government web resources and services.